This is the latest recevied weather packets stored in our database for station/object IW1QQG-13. If no packets are shown the sender has not sent any weather packets the latest 10 day(s).
| Time | Temp. | Humidity | Pressure | Rain* | Wind** | Luminosity | Snow |
|---|---|---|---|---|---|---|---|
| 1777590624 | 15.56° C | 57% | 1021.3 hPa | 0 mm | - | 0 W/m² | - |
| 1777590024 | 15° C | 58% | 1021.3 hPa | 0 mm | - | 0 W/m² | - |
| 1777589424 | 15.56° C | 57% | 1021.3 hPa | 0 mm | - | 0 W/m² | - |
| 1777588824 | 15° C | 60% | 1021.3 hPa | 0 mm | - | 0 W/m² | - |
| 1777588224 | 15° C | 60% | 1021 hPa | 0 mm | - | 0 W/m² | - |
| 1777587624 | 15.56° C | 57% | 1021 hPa | 0 mm | - | 0 W/m² | - |
| 1777587024 | 15° C | 59% | 1021 hPa | 0 mm | - | 0 W/m² | - |
| 1777586424 | 15.56° C | 56% | 1021 hPa | 0 mm | - | 0 W/m² | - |
| 1777585824 | 15.56° C | 57% | 1021 hPa | 0 mm | - | 0 W/m² | - |
| 1777585224 | 15.56° C | 57% | 1021 hPa | 0 mm | - | 0 W/m² | - |
| 1777584624 | 16.11° C | 55% | 1020.7 hPa | 0 mm | - | 0 W/m² | - |
| 1777584024 | 16.11° C | 53% | 1020.7 hPa | 0 mm | - | 0 W/m² | - |
| 1777583424 | 16.11° C | 54% | 1021 hPa | 0 mm | - | 0 W/m² | - |
| 1777582824 | 16.11° C | 55% | 1020.7 hPa | 0 mm | - | 0 W/m² | - |
| 1777582224 | 16.11° C | 55% | 1020.7 hPa | 0 mm | - | 0 W/m² | - |
| 1777581622 | 16.67° C | 54% | 1020.7 hPa | 0 mm | - | 0 W/m² | - |
| 1777581022 | 16.11° C | 54% | 1020.7 hPa | 0 mm | - | 0 W/m² | - |
| 1777580422 | 16.11° C | 54% | 1020.7 hPa | 0 mm | - | 0 W/m² | - |
| 1777579822 | 16.67° C | 51% | 1020.7 hPa | 0 mm | - | 0 W/m² | - |
| 1777579222 | 16.67° C | 51% | 1020.7 hPa | 0 mm | - | 0 W/m² | - |
| 1777578622 | 16.67° C | 50% | 1020.7 hPa | 0 mm | - | 0 W/m² | - |
| 1777578022 | 16.67° C | 49% | 1020.7 hPa | 0 mm | - | 0 W/m² | - |
| 1777577422 | 16.67° C | 50% | 1020.3 hPa | 0 mm | - | 0 W/m² | - |
| 1777576822 | 16.67° C | 49% | 1020.3 hPa | 0 mm | - | 0 W/m² | - |
| 1777576222 | 16.11° C | 53% | 1020.3 hPa | 0 mm | - | 0 W/m² | - |
* Rain latest hour (hover to see other rain measurements)
** Current wind speed in m/s (hover to see current wind gust speed)